Time;durP1;ratioP1;P1;durP2;ratioP2;P2;SDS_P1;SDS_P2;PMS_P1;PMS_P2;Temp;Humidity;BMP_temperature;BMP_pressure;BME280_temperature;BME280_humidity;BME280_pressure;Samples;Min_cycle;Max_cycle;Signal;HPM_P1;HPM_P2
2021/11/04 00:01:06;;;;;;;13.00;8.02;;;;;;;3.75;97.48;100540.03;5091761;28;20052;-69
2021/11/04 00:03:33;;;;;;;14.02;7.82;;;;;;;3.58;98.04;100539.69;5092081;28;20052;-69
2021/11/04 00:06:00;;;;;;;15.02;7.88;;;;;;;3.71;98.22;100538.44;5091528;28;20045;-69
2021/11/04 00:08:27;;;;;;;13.60;8.35;;;;;;;3.58;98.16;100534.53;5092073;28;20434;-69
2021/11/04 00:10:54;;;;;;;14.40;8.30;;;;;;;3.52;98.59;100533.00;5091952;28;20051;-69
2021/11/04 00:13:24;;;;;;;12.98;7.75;;;;;;;3.58;98.74;100527.66;5091642;28;20052;-69
2021/11/04 00:15:51;;;;;;;13.23;7.70;;;;;;;3.51;98.66;100522.75;5092019;28;20067;-69
2021/11/04 00:18:18;;;;;;;14.75;8.55;;;;;;;3.47;99.13;100525.41;5091464;28;20048;-69
2021/11/04 00:20:45;;;;;;;13.48;7.85;;;;;;;3.74;98.30;100530.59;5091736;28;20134;-69
2021/11/04 00:23:12;;;;;;;14.32;7.53;;;;;;;3.96;97.32;100530.81;5091668;28;20074;-69
2021/11/04 00:25:39;;;;;;;15.20;7.57;;;;;;;3.78;96.89;100526.22;5091697;28;20051;-69
2021/11/04 00:28:06;;;;;;;12.77;8.07;;;;;;;3.62;97.87;100520.69;5091294;28;20044;-69
2021/11/04 00:30:34;;;;;;;15.68;8.30;;;;;;;3.56;98.31;100520.88;5091893;28;20048;-69
2021/11/04 00:33:01;;;;;;;14.32;8.52;;;;;;;3.58;98.71;100524.25;5091330;28;20063;-69
2021/11/04 00:35:28;;;;;;;13.95;7.20;;;;;;;3.86;97.33;100521.69;5091783;28;20044;-69
2021/11/04 00:37:55;;;;;;;14.68;7.72;;;;;;;3.87;96.96;100518.22;5091148;28;20075;-69
2021/11/04 00:40:23;;;;;;;14.05;7.68;;;;;;;3.83;97.28;100517.47;5091840;28;20067;-69
2021/11/04 00:42:50;;;;;;;12.70;8.00;;;;;;;3.76;97.44;100517.72;5091705;28;20181;-68
2021/11/04 00:45:18;;;;;;;12.23;7.60;;;;;;;3.82;96.61;100512.34;5091230;28;20506;-69
2021/11/04 00:47:46;;;;;;;13.65;7.95;;;;;;;3.68;97.55;100513.63;5091735;28;20056;-69
2021/11/04 00:50:13;;;;;;;15.15;7.45;;;;;;;3.74;98.07;100506.63;5094296;28;20048;-69
2021/11/04 00:52:40;;;;;;;;;;;;;;;3.81;97.55;100516.66;5095309;28;20527;-69
2021/11/04 00:55:09;;;;;;;13.80;7.60;;;;;;;3.81;97.26;100505.53;5095028;28;19942;-69
2021/11/04 00:57:37;;;;;;;14.68;7.72;;;;;;;3.66;97.70;100502.53;5095258;28;20074;-69
2021/11/04 01:00:06;;;;;;;12.85;8.27;;;;;;;3.44;98.99;100491.19;5094562;28;20462;-69
2021/11/04 01:02:33;;;;;;;13.05;7.78;;;;;;;3.53;98.69;100493.50;5095136;28;20048;-69
2021/11/04 01:05:02;;;;;;;15.95;7.90;;;;;;;3.59;97.87;100488.16;5094578;28;20047;-69
2021/11/04 01:07:28;;;;;;;13.68;7.88;;;;;;;3.45;98.74;100492.91;5095004;28;20072;-69
2021/11/04 01:09:55;;;;;;;16.50;8.63;;;;;;;3.54;98.71;100492.59;5094717;28;20044;-69
2021/11/04 01:12:22;;;;;;;14.50;8.30;;;;;;;3.42;99.35;100488.69;5094749;28;20059;-69
2021/11/04 01:14:49;;;;;;;13.07;8.23;;;;;;;3.60;99.23;100482.16;5094585;28;20048;-69
2021/11/04 01:17:16;;;;;;;15.63;8.05;;;;;;;3.67;99.14;100488.81;5094310;28;20059;-69
2021/11/04 01:19:43;;;;;;;17.42;7.90;;;;;;;3.60;98.74;100476.16;5094758;28;20048;-69
2021/11/04 01:22:11;;;;;;;15.38;8.38;;;;;;;3.59;98.27;100479.63;5094599;28;20044;-69
2021/11/04 01:24:38;;;;;;;14.55;8.07;;;;;;;3.71;98.02;100474.94;5094714;28;20051;-69
2021/11/04 01:27:06;;;;;;;13.35;7.53;;;;;;;3.58;99.08;100478.78;5094161;28;20513;-69
2021/11/04 01:29:32;;;;;;;;;;;;;;;3.69;98.35;100471.56;5095436;28;20048;-69
2021/11/04 01:31:59;;;;;;;13.63;7.95;;;;;;;3.71;98.02;100468.94;5093897;28;19920;-69
2021/11/04 01:34:26;;;;;;;11.88;7.30;;;;;;;3.52;98.71;100457.53;5094236;28;20051;-69
2021/11/04 01:36:53;;;;;;;11.63;7.82;;;;;;;3.59;99.33;100469.31;5094135;28;20044;-69
2021/11/04 01:39:21;;;;;;;12.38;7.65;;;;;;;3.74;97.40;100455.97;5094105;28;20505;-69
2021/11/04 01:41:48;;;;;;;14.15;8.35;;;;;;;3.59;98.19;100459.88;5094056;28;20521;-69
2021/11/04 01:44:15;;;;;;;15.90;8.02;;;;;;;3.61;98.50;100463.25;5093855;28;20484;-69
2021/11/04 01:46:43;;;;;;;15.15;8.38;;;;;;;3.58;98.96;100455.63;5094240;28;20055;-69
2021/11/04 01:49:11;;;;;;;11.50;7.13;;;;;;;3.83;98.31;100449.72;5094032;28;20055;-69
2021/11/04 01:51:37;;;;;;;;;;;;;;;3.97;97.36;100452.66;5094426;28;20051;-69
2021/11/04 01:54:04;;;;;;;15.48;7.35;;;;;;;3.91;97.43;100452.88;5093931;28;20294;-69
2021/11/04 01:56:38;;;;;;;10.15;6.70;;;;;;;3.83;97.59;100450.56;5093747;28;20044;-69
2021/11/04 01:59:05;;;;;;;13.43;6.65;;;;;;;3.87;97.93;100456.44;5093843;28;20060;-69
2021/11/04 02:01:32;;;;;;;11.50;7.28;;;;;;;3.71;98.46;100456.09;5093588;28;20059;-69
2021/11/04 02:04:03;;;;;;;;;;;;;;;3.82;97.76;100453.16;5094161;28;20055;-69
2021/11/04 02:06:34;;;;;;;10.90;6.72;;;;;;;3.73;98.81;100450.91;5093672;28;19920;-69
2021/11/04 02:09:06;;;;;;;11.48;7.05;;;;;;;3.52;99.08;100453.25;5093699;28;20058;-69
2021/11/04 02:11:39;;;;;;;12.30;6.95;;;;;;;3.51;99.43;100459.25;5093874;28;20135;-69
2021/11/04 02:14:11;;;;;;;12.25;7.45;;;;;;;3.57;99.31;100448.81;5093448;28;20058;-69
2021/11/04 02:16:40;;;;;;;14.35;7.53;;;;;;;3.44;99.84;100447.47;5093593;28;20097;-69
2021/11/04 02:19:17;;;;;;;11.23;6.82;;;;;;;3.71;98.94;100448.38;5093433;28;20056;-69
2021/11/04 02:21:52;;;;;;;13.48;7.32;;;;;;;3.59;99.53;100441.84;5093427;28;20044;-69
2021/11/04 02:24:25;;;;;;;12.60;7.13;;;;;;;3.55;99.47;100444.59;5093221;28;20498;-69
2021/11/04 02:26:54;;;;;;;13.50;7.43;;;;;;;3.41;100.00;100443.25;5093236;28;20407;-69
2021/11/04 02:29:22;;;;;;;13.15;7.22;;;;;;;3.50;100.00;100447.31;5093183;28;20048;-69
2021/11/04 02:31:49;;;;;;;12.70;6.93;;;;;;;3.43;100.00;100448.38;5093441;28;20055;-69
2021/11/04 02:34:17;;;;;;;14.52;7.75;;;;;;;3.41;100.00;100455.28;5092664;28;20054;-69
2021/11/04 02:36:46;;;;;;;15.50;7.40;;;;;;;3.47;99.95;100444.84;5092977;28;20411;-69
2021/11/04 02:39:15;;;;;;;11.10;6.95;;;;;;;3.43;100.00;100451.78;5092779;28;20048;-69
2021/11/04 02:41:44;;;;;;;11.82;6.72;;;;;;;3.37;100.00;100451.16;5093201;28;20201;-69
2021/11/04 02:44:12;;;;;;;11.18;7.20;;;;;;;3.41;100.00;100448.41;5092953;28;20075;-69
2021/11/04 02:46:40;;;;;;;13.27;6.57;;;;;;;3.51;100.00;100443.00;5092864;28;20059;-69
2021/11/04 02:49:07;;;;;;;13.70;7.35;;;;;;;3.51;100.00;100451.53;5092663;28;20044;-69
2021/11/04 02:51:37;;;;;;;;;;;;;;;3.55;100.00;100448.00;5093273;28;20052;-69
2021/11/04 02:54:06;;;;;;;9.25;6.22;;;;;;;3.69;98.98;100443.25;5092810;28;19942;-69
2021/11/04 02:56:44;;;;;;;11.50;6.57;;;;;;;3.57;99.62;100440.22;5092552;28;20050;-69
2021/11/04 02:59:14;;;;;;;11.77;6.47;;;;;;;3.59;99.72;100444.44;5092528;28;20043;-69
2021/11/04 03:01:42;;;;;;;14.05;6.97;;;;;;;3.58;100.00;100444.50;5092639;28;20058;-69
2021/11/04 03:04:09;;;;;;;10.43;6.20;;;;;;;3.57;100.00;100437.66;5092648;28;20048;-69
2021/11/04 03:06:36;;;;;;;12.07;6.47;;;;;;;3.56;100.00;100444.53;5092528;28;20052;-69
2021/11/04 03:09:04;;;;;;;12.23;6.72;;;;;;;3.47;100.00;100435.38;5092154;28;20044;-69
2021/11/04 03:11:31;;;;;;;11.05;6.50;;;;;;;3.55;100.00;100434.31;5092057;28;20054;-69
2021/11/04 03:13:58;;;;;;;;;;;;;;;3.59;99.72;100429.00;5092499;28;20044;-69
2021/11/04 03:16:27;;;;;;;10.95;5.80;;;;;;;3.53;100.00;100424.06;5092609;28;19920;-69
2021/11/04 03:18:56;;;;;;;12.07;6.85;;;;;;;3.51;100.00;100428.41;5092407;28;20048;-69
2021/11/04 03:21:23;;;;;;;11.85;6.38;;;;;;;3.59;100.00;100420.44;5092555;28;20048;-69
2021/11/04 03:23:50;;;;;;;;;;;;;;;3.55;100.00;100412.00;5092975;28;20147;-69
2021/11/04 03:26:18;;;;;;;10.18;6.00;;;;;;;3.45;100.00;100413.16;5092015;28;19946;-69
2021/11/04 03:28:46;;;;;;;11.57;6.43;;;;;;;3.38;100.00;100415.06;5092360;28;20044;-69
2021/11/04 03:31:15;;;;;;;16.25;6.95;;;;;;;3.34;100.00;100412.63;5091952;28;20483;-69
2021/11/04 03:33:45;;;;;;;11.40;5.95;;;;;;;3.43;100.00;100412.38;5092163;28;20612;-69
2021/11/04 03:36:12;;;;;;;9.07;5.72;;;;;;;3.44;100.00;100409.75;5091987;28;20044;-69
2021/11/04 03:38:40;;;;;;;10.15;6.40;;;;;;;3.40;100.00;100408.16;5091958;28;20454;-69
2021/11/04 03:41:08;;;;;;;11.00;6.35;;;;;;;3.46;100.00;100407.13;5092435;28;20054;-69
2021/11/04 03:43:36;;;;;;;11.50;6.18;;;;;;;3.59;100.00;100399.84;5091947;28;20097;-69
2021/11/04 03:46:03;;;;;;;9.82;5.50;;;;;;;3.58;100.00;100405.91;5091815;28;20040;-69
2021/11/04 03:48:31;;;;;;;10.90;6.22;;;;;;;3.50;100.00;100403.56;5092204;28;20058;-69
2021/11/04 03:50:59;;;;;;;;;;;;;;;3.49;100.00;100401.88;5092110;28;20613;-69
2021/11/04 03:53:26;;;;;;;9.05;5.00;;;;;;;3.55;100.00;100400.88;5091894;28;19919;-69
2021/11/04 03:55:54;;;;;;;10.05;5.43;;;;;;;3.45;100.00;100408.03;5092138;28;20048;-69
2021/11/04 03:58:22;;;;;;;10.13;5.43;;;;;;;3.43;100.00;100402.06;5091887;28;20048;-69
2021/11/04 04:00:49;;;;;;;10.90;5.32;;;;;;;3.48;100.00;100402.78;5091754;28;20054;-69
2021/11/04 04:03:16;;;;;;;;;;;;;;;3.45;100.00;100397.72;5092048;28;20646;-69
2021/11/04 04:05:43;;;;;;;14.18;6.63;;;;;;;3.41;100.00;100399.53;5091755;28;20291;-69
2021/11/04 04:08:11;;;;;;;10.60;5.95;;;;;;;3.57;100.00;100394.78;5091595;28;20063;-69
2021/11/04 04:10:38;;;;;;;8.25;5.22;;;;;;;3.82;100.00;100396.53;5091765;28;20249;-69
2021/11/04 04:13:05;;;;;;;9.88;4.88;;;;;;;3.77;98.94;100393.28;5091578;28;20056;-69
2021/11/04 04:15:31;;;;;;;8.75;5.43;;;;;;;3.59;100.00;100397.28;5091604;28;20048;-69
2021/11/04 04:17:58;;;;;;;9.73;5.35;;;;;;;3.58;100.00;100393.88;5091438;28;20051;-69
2021/11/04 04:20:27;;;;;;;12.93;6.25;;;;;;;3.53;100.00;100392.34;5091696;28;20048;-69
2021/11/04 04:22:54;;;;;;;7.25;4.70;;;;;;;3.52;100.00;100388.94;5091945;28;20059;-69
2021/11/04 04:25:22;;;;;;;14.55;5.57;;;;;;;3.55;100.00;100396.56;5095197;28;20051;-69
2021/11/04 04:27:49;;;;;;;8.20;5.13;;;;;;;3.69;100.00;100393.53;5095835;28;20055;-69
2021/11/04 04:30:16;;;;;;;;;;;;;;;3.91;100.00;100391.13;5095964;28;20048;-69
2021/11/04 04:32:43;;;;;;;8.38;4.65;;;;;;;3.76;99.71;100399.34;5095820;28;19927;-69
2021/11/04 04:35:10;;;;;;;11.40;5.50;;;;;;;3.56;100.00;100392.25;5095445;28;20047;-69
2021/11/04 04:37:37;;;;;;;10.93;5.20;;;;;;;3.53;100.00;100397.50;5095515;28;20075;-69
2021/11/04 04:40:04;;;;;;;10.15;5.75;;;;;;;3.65;100.00;100392.81;5095347;28;20051;-69
2021/11/04 04:42:33;;;;;;;11.25;5.57;;;;;;;3.57;100.00;100397.34;5095430;28;20051;-69
2021/11/04 04:44:59;;;;;;;7.53;4.65;;;;;;;3.54;100.00;100397.44;5094918;28;20384;-69
2021/11/04 04:47:26;;;;;;;10.15;5.07;;;;;;;3.49;100.00;100391.59;5095523;28;20044;-69
2021/11/04 04:49:58;;;;;;;10.65;5.28;;;;;;;3.46;100.00;100387.38;5095140;28;20048;-69
2021/11/04 04:52:25;;;;;;;8.43;4.93;;;;;;;3.51;100.00;100388.97;5095013;28;20048;-69
2021/11/04 04:54:52;;;;;;;8.73;4.70;;;;;;;3.47;100.00;100388.25;5095334;28;20052;-67
2021/11/04 04:57:22;;;;;;;13.77;5.13;;;;;;;3.41;100.00;100389.25;5094548;28;20060;-67
2021/11/04 04:59:51;;;;;;;10.30;5.30;;;;;;;3.42;100.00;100385.81;5095051;28;20587;-67
2021/11/04 05:02:18;;;;;;;12.23;6.00;;;;;;;3.41;100.00;100381.53;5094927;28;20048;-67
2021/11/04 05:04:45;;;;;;;9.35;5.63;;;;;;;3.39;100.00;100385.91;5094838;28;20044;-67
2021/11/04 05:07:12;;;;;;;9.20;5.18;;;;;;;3.42;100.00;100384.97;5094773;28;20050;-67
2021/11/04 05:09:39;;;;;;;7.75;4.90;;;;;;;3.49;100.00;100386.44;5094694;28;20059;-67
2021/11/04 05:12:07;;;;;;;11.48;4.90;;;;;;;3.46;100.00;100382.22;5094828;28;20048;-67
2021/11/04 05:14:34;;;;;;;10.23;5.50;;;;;;;3.41;100.00;100385.84;5094689;28;20048;-67
2021/11/04 05:17:02;;;;;;;9.13;4.82;;;;;;;3.50;100.00;100383.00;5094520;28;20051;-67
2021/11/04 05:19:29;;;;;;;12.50;5.32;;;;;;;3.49;100.00;100382.16;5094617;28;20052;-67
2021/11/04 05:21:56;;;;;;;7.68;4.85;;;;;;;3.56;100.00;100387.94;5094484;28;20067;-67
2021/11/04 05:24:23;;;;;;;8.75;4.85;;;;;;;3.53;100.00;100382.06;5094799;28;20048;-67
2021/11/04 05:26:51;;;;;;;9.25;5.20;;;;;;;3.54;100.00;100374.28;5094727;28;20052;-67
2021/11/04 05:29:18;;;;;;;8.88;4.72;;;;;;;3.54;100.00;100376.84;5093969;28;20051;-67
2021/11/04 05:31:45;;;;;;;8.70;5.63;;;;;;;3.50;100.00;100375.28;5094238;28;20044;-67
2021/11/04 05:34:13;;;;;;;11.32;5.22;;;;;;;3.49;100.00;100369.31;5093956;28;20050;-67
2021/11/04 05:36:40;;;;;;;8.60;4.90;;;;;;;3.45;100.00;100369.44;5094327;28;20051;-67
2021/11/04 05:39:07;;;;;;;9.85;5.18;;;;;;;3.43;100.00;100372.06;5094088;28;20051;-67
2021/11/04 05:41:34;;;;;;;13.48;5.40;;;;;;;3.48;100.00;100367.59;5094127;28;20048;-67
2021/11/04 05:44:01;;;;;;;11.05;5.10;;;;;;;3.45;100.00;100370.28;5094176;28;20051;-67
2021/11/04 05:46:28;;;;;;;11.50;5.40;;;;;;;3.47;100.00;100368.50;5094079;28;20139;-67
2021/11/04 05:48:55;;;;;;;11.98;5.28;;;;;;;3.50;100.00;100370.13;5093697;28;20051;-67
2021/11/04 05:51:23;;;;;;;9.60;4.63;;;;;;;3.52;100.00;100364.94;5093977;28;20048;-66
2021/11/04 05:53:50;;;;;;;14.02;4.72;;;;;;;3.53;100.00;100375.19;5093866;28;20060;-67
2021/11/04 05:56:17;;;;;;;10.30;5.05;;;;;;;3.49;100.00;100373.59;5093555;28;20541;-67
2021/11/04 05:58:44;;;;;;;10.70;5.03;;;;;;;3.46;100.00;100366.81;5094066;28;20131;-67
2021/11/04 06:01:10;;;;;;;12.65;5.15;;;;;;;3.45;100.00;100377.16;5093758;28;20044;-67
2021/11/04 06:03:37;;;;;;;8.57;4.55;;;;;;;3.50;100.00;100377.84;5093919;28;20056;-67
2021/11/04 06:06:04;;;;;;;10.05;5.28;;;;;;;3.50;100.00;100372.72;5093666;28;20066;-67
2021/11/04 06:08:32;;;;;;;14.07;5.32;;;;;;;3.47;100.00;100373.66;5093867;28;20051;-67
2021/11/04 06:10:59;;;;;;;9.13;4.70;;;;;;;3.51;100.00;100373.53;5093310;28;20143;-67
2021/11/04 06:13:26;;;;;;;7.30;4.82;;;;;;;3.53;100.00;100374.34;5093572;28;20491;-67
2021/11/04 06:15:53;;;;;;;8.60;5.18;;;;;;;3.56;100.00;100379.38;5093299;28;20403;-69
2021/11/04 06:18:20;;;;;;;7.97;4.80;;;;;;;3.56;100.00;100372.50;5093740;28;20048;-69
2021/11/04 06:20:47;;;;;;;11.80;5.10;;;;;;;3.54;100.00;100366.56;5093689;28;20051;-69
2021/11/04 06:23:14;;;;;;;9.55;4.88;;;;;;;3.56;100.00;100374.25;5093451;28;20052;-69
2021/11/04 06:25:42;;;;;;;9.30;5.47;;;;;;;3.49;100.00;100369.31;5093598;28;20048;-69
2021/11/04 06:28:09;;;;;;;8.20;5.30;;;;;;;3.51;100.00;100382.09;5093123;28;20410;-69
2021/11/04 06:30:36;;;;;;;9.27;5.18;;;;;;;3.49;100.00;100371.00;5093515;28;20052;-69
2021/11/04 06:33:03;;;;;;;9.52;4.90;;;;;;;3.50;100.00;100372.72;5093171;28;20048;-69
2021/11/04 06:35:30;;;;;;;9.07;5.00;;;;;;;3.58;100.00;100372.47;5093136;28;20406;-69
2021/11/04 06:37:57;;;;;;;10.20;5.45;;;;;;;3.56;100.00;100372.50;5092945;28;20051;-69
2021/11/04 06:40:26;;;;;;;8.40;5.35;;;;;;;3.65;100.00;100382.50;5093338;28;20047;-68
2021/11/04 06:42:55;;;;;;;7.30;5.03;;;;;;;3.65;100.00;100371.38;5093459;28;20144;-69
2021/11/04 06:45:22;;;;;;;10.15;5.13;;;;;;;3.61;100.00;100375.78;5092832;28;20054;-69
2021/11/04 06:47:52;;;;;;;8.90;5.18;;;;;;;3.58;100.00;100375.03;5092183;28;20052;-69
2021/11/04 06:50:24;;;;;;;11.15;5.68;;;;;;;3.57;100.00;100373.34;5092486;28;20052;-69
2021/11/04 06:52:56;;;;;;;7.03;5.00;;;;;;;3.54;100.00;100379.41;5092609;28;20499;-69
2021/11/04 06:55:29;;;;;;;9.98;5.18;;;;;;;3.55;100.00;100381.13;5093013;28;20051;-69
2021/11/04 06:58:01;;;;;;;9.90;4.85;;;;;;;3.57;100.00;100383.63;5092218;28;20090;-69
2021/11/04 07:00:30;;;;;;;9.63;5.13;;;;;;;3.71;100.00;100381.47;5093005;28;20087;-69
2021/11/04 07:03:08;;;;;;;9.43;5.18;;;;;;;3.66;100.00;100389.31;5092610;28;20044;-69
2021/11/04 07:05:35;;;;;;;11.43;4.80;;;;;;;3.64;100.00;100388.53;5092846;28;20067;-69
2021/11/04 07:08:04;;;;;;;7.80;4.43;;;;;;;3.65;100.00;100390.22;5092569;28;20067;-69
2021/11/04 07:10:31;;;;;;;8.55;4.72;;;;;;;3.65;100.00;100391.97;5092319;28;20494;-69
2021/11/04 07:12:59;;;;;;;8.57;5.15;;;;;;;3.62;100.00;100392.91;5092031;28;20059;-69
2021/11/04 07:15:26;;;;;;;11.70;5.63;;;;;;;3.62;100.00;100394.63;5092372;28;20205;-69
2021/11/04 07:17:54;;;;;;;11.25;5.50;;;;;;;3.62;100.00;100389.47;5092294;28;20403;-69
2021/11/04 07:20:21;;;;;;;8.25;5.45;;;;;;;3.57;100.00;100397.34;5092270;28;20059;-69
2021/11/04 07:22:51;;;;;;;9.18;6.00;;;;;;;3.57;100.00;100393.91;5092519;28;20246;-69
2021/11/04 07:25:20;;;;;;;9.30;5.38;;;;;;;3.59;100.00;100397.28;5091832;28;20056;-69
2021/11/04 07:27:55;;;;;;;9.05;5.35;;;;;;;3.56;100.00;100398.22;5092216;28;20050;-69
2021/11/04 07:30:24;;;;;;;9.35;5.90;;;;;;;3.54;100.00;100400.00;5092503;28;20051;-69
2021/11/04 07:32:53;;;;;;;9.30;5.35;;;;;;;3.54;100.00;100405.16;5092414;28;20044;-69
2021/11/04 07:35:22;;;;;;;9.52;5.70;;;;;;;3.56;100.00;100403.38;5092071;28;20048;-69
2021/11/04 07:37:49;;;;;;;9.50;5.68;;;;;;;3.70;100.00;100411.50;5092006;28;20048;-69
2021/11/04 07:40:19;;;;;;;13.43;5.80;;;;;;;3.67;100.00;100413.31;5091818;28;20044;-69
2021/11/04 07:42:46;;;;;;;12.30;6.47;;;;;;;3.62;100.00;100410.03;5091951;28;20305;-69
2021/11/04 07:45:13;;;;;;;;;;;;;;;3.63;100.00;100402.28;5092025;28;20048;-69
2021/11/04 07:47:44;;;;;;;9.00;4.57;;;;;;;3.83;100.00;100400.81;5091991;28;19920;-69
2021/11/04 07:50:15;;;;;;;12.50;5.53;;;;;;;4.03;100.00;100395.00;5091598;28;20050;-69
2021/11/04 07:52:42;;;;;;;8.68;5.25;;;;;;;3.92;100.00;100410.78;5091751;28;20137;-69
2021/11/04 07:55:10;;;;;;;10.95;5.18;;;;;;;3.81;100.00;100405.19;5091960;28;20059;-69
2021/11/04 07:57:38;;;;;;;9.63;5.70;;;;;;;3.83;100.00;100405.97;5092577;28;20059;-69
2021/11/04 08:00:07;;;;;;;8.57;4.82;;;;;;;3.98;100.00;100402.03;5096044;28;20074;-69
2021/11/04 08:02:34;;;;;;;8.00;5.15;;;;;;;4.02;100.00;100399.31;5096041;28;20457;-69
2021/11/04 08:05:03;;;;;;;;;;;;;;;3.98;100.00;100407.16;5096446;28;20131;-69
2021/11/04 08:07:33;;;;;;;10.48;5.60;;;;;;;3.82;100.00;100405.09;5095946;28;19924;-69
2021/11/04 08:10:00;;;;;;;9.50;5.45;;;;;;;3.73;100.00;100395.13;5095550;28;20495;-69
2021/11/04 08:12:27;;;;;;;10.32;5.00;;;;;;;3.92;100.00;100392.78;5095807;28;20090;-69
2021/11/04 08:14:54;;;;;;;8.25;5.28;;;;;;;4.04;100.00;100389.81;5096097;28;20048;-69
2021/11/04 08:17:21;;;;;;;8.52;4.80;;;;;;;4.09;100.00;100387.91;5096003;28;20055;-67
2021/11/04 08:19:48;;;;;;;8.73;4.93;;;;;;;4.14;100.00;100395.47;5095910;28;20052;-67
2021/11/04 08:22:16;;;;;;;7.22;4.68;;;;;;;3.95;100.00;100404.72;5095672;28;20059;-68
2021/11/04 08:24:44;;;;;;;9.65;4.43;;;;;;;3.98;100.00;100405.44;5095907;28;20052;-68
2021/11/04 08:27:10;;;;;;;;;;;;;;;4.16;100.00;100411.69;5095743;28;20059;-70
2021/11/04 08:29:37;;;;;;;11.73;4.55;;;;;;;4.14;100.00;100413.50;5095890;28;19926;-68
2021/11/04 08:32:05;;;;;;;11.10;4.45;;;;;;;4.24;99.44;100414.88;5095206;28;20044;-68
2021/11/04 08:34:32;;;;;;;7.72;4.68;;;;;;;4.46;99.01;100417.53;5095301;28;20052;-68
2021/11/04 08:36:59;;;;;;;;;;;;;;;4.38;98.88;100416.13;5095432;28;20043;-67
2021/11/04 08:39:27;;;;;;;8.45;4.30;;;;;;;4.20;99.28;100417.59;5095380;28;19920;-67
2021/11/04 08:41:54;;;;;;;6.53;4.43;;;;;;;4.23;100.00;100417.50;5095501;28;20048;-67
2021/11/04 08:44:21;;;;;;;9.95;4.82;;;;;;;4.23;100.00;100420.06;5095238;28;20044;-68
2021/11/04 08:46:48;;;;;;;7.20;4.20;;;;;;;4.27;99.70;100409.63;5095206;28;20051;-68
2021/11/04 08:49:15;;;;;;;5.88;4.00;;;;;;;4.25;100.00;100408.00;5094842;28;20048;-68
2021/11/04 08:51:46;;;;;;;8.70;4.40;;;;;;;4.21;100.00;100412.38;5094886;28;20055;-68
2021/11/04 08:54:14;;;;;;;6.38;4.13;;;;;;;4.28;100.00;100405.31;5094859;28;20139;-68
2021/11/04 08:56:42;;;;;;;6.35;4.07;;;;;;;4.35;100.00;100404.19;5094903;28;20055;-68
2021/11/04 08:59:09;;;;;;;6.28;3.83;;;;;;;4.36;99.85;100406.72;5094909;28;20044;-68
2021/11/04 09:01:38;;;;;;;7.65;3.80;;;;;;;4.36;99.70;100406.72;5095077;28;20048;-68
2021/11/04 09:04:05;;;;;;;6.00;3.85;;;;;;;4.36;100.00;100404.13;5094899;28;20051;-68
2021/11/04 09:06:32;;;;;;;7.72;4.70;;;;;;;4.48;99.75;100399.47;5094784;28;20054;-68
2021/11/04 09:09:01;;;;;;;5.13;3.75;;;;;;;4.54;98.28;100394.91;5094257;28;20044;-68
2021/11/04 09:11:28;;;;;;;5.93;3.95;;;;;;;4.56;98.47;100395.69;5094290;28;20131;-68
2021/11/04 09:13:58;;;;;;;5.55;3.90;;;;;;;4.55;98.40;100399.19;5094143;28;20056;-68
2021/11/04 09:16:25;;;;;;;6.78;3.67;;;;;;;4.61;97.64;100402.44;5093764;28;20059;-68
2021/11/04 09:18:52;;;;;;;7.40;4.35;;;;;;;4.71;97.45;100401.22;5094383;28;20063;-68
2021/11/04 09:21:18;;;;;;;7.18;3.78;;;;;;;4.68;97.10;100396.19;5094535;28;20044;-68
2021/11/04 09:23:45;;;;;;;6.80;4.32;;;;;;;4.74;96.74;100401.09;5094529;28;20048;-68
2021/11/04 09:26:12;;;;;;;6.03;4.05;;;;;;;4.65;97.82;100396.25;5093877;28;20052;-68
2021/11/04 09:28:39;;;;;;;;;;;;;;;4.53;98.27;100398.41;5095041;28;20044;-68
2021/11/04 09:31:09;;;;;;;7.22;4.53;;;;;;;4.43;98.69;100399.63;5094476;28;19960;-68
2021/11/04 09:33:37;;;;;;;6.80;4.32;;;;;;;4.42;99.28;100408.25;5094263;28;20498;-68
2021/11/04 09:36:04;;;;;;;6.60;4.22;;;;;;;4.53;98.63;100407.88;5093808;28;20055;-68
2021/11/04 09:38:30;;;;;;;7.47;4.30;;;;;;;4.45;98.15;100410.72;5094329;28;20060;-68
2021/11/04 09:40:57;;;;;;;5.78;4.43;;;;;;;4.47;98.52;100408.94;5094135;28;20040;-68
2021/11/04 09:43:25;;;;;;;7.05;4.32;;;;;;;4.38;98.41;100406.66;5093838;28;20048;-68
2021/11/04 09:45:51;;;;;;;;;;;;;;;4.40;99.48;100404.06;5094359;28;20044;-68
2021/11/04 09:48:20;;;;;;;5.15;3.70;;;;;;;4.39;99.16;100405.75;5093714;28;19920;-67
2021/11/04 09:50:46;;;;;;;7.32;3.88;;;;;;;4.57;98.50;100399.97;5094164;28;20050;-67
2021/11/04 09:53:13;;;;;;;5.47;3.67;;;;;;;4.57;98.21;100397.41;5093504;28;20056;-68
2021/11/04 09:55:40;;;;;;;6.95;3.83;;;;;;;4.49;98.01;100401.97;5093870;28;20503;-68
2021/11/04 09:58:07;;;;;;;6.95;4.10;;;;;;;4.49;98.22;100409.69;5093894;28;20055;-67
2021/11/04 10:00:38;;;;;;;7.03;4.15;;;;;;;4.38;99.53;100410.97;5093657;28;20302;-68
2021/11/04 10:03:07;;;;;;;6.20;3.92;;;;;;;4.40;98.77;100409.19;5093846;28;20047;-67
2021/11/04 10:05:48;;;;;;;6.47;3.90;;;;;;;4.37;99.67;100410.16;5093979;28;20044;-67
2021/11/04 10:08:16;;;;;;;5.32;3.65;;;;;;;4.49;98.81;100406.28;5093657;28;20127;-68
2021/11/04 10:10:44;;;;;;;5.97;3.60;;;;;;;4.53;98.73;100408.72;5093247;28;20442;-68
2021/11/04 10:13:12;;;;;;;5.57;3.72;;;;;;;4.61;98.36;100411.00;5093521;28;20059;-68
2021/11/04 10:15:41;;;;;;;5.78;3.78;;;;;;;4.71;97.34;100411.53;5093836;28;20058;-69
2021/11/04 10:18:15;;;;;;;4.72;3.40;;;;;;;4.74;97.24;100404.50;5092949;28;20055;-69
2021/11/04 10:20:52;;;;;;;5.25;3.70;;;;;;;4.62;97.44;100410.09;5093122;28;20088;-69
2021/11/04 10:23:20;;;;;;;5.53;3.30;;;;;;;4.56;97.97;100407.75;5092573;28;20055;-69
2021/11/04 10:25:48;;;;;;;4.85;3.33;;;;;;;4.55;97.56;100401.75;5093621;28;20047;-69
2021/11/04 10:28:24;;;;;;;4.75;3.05;;;;;;;4.57;97.90;100406.84;5093218;28;20044;-69
2021/11/04 10:30:51;;;;;;;5.88;3.50;;;;;;;4.56;98.60;100405.19;5093036;28;20058;-69
2021/11/04 10:33:19;;;;;;;;;;;;;;;4.64;98.53;100400.59;5093347;28;20048;-69
2021/11/04 10:35:55;;;;;;;5.57;2.97;;;;;;;4.64;98.68;100404.91;5093151;28;19920;-69
2021/11/04 10:38:23;;;;;;;5.53;3.22;;;;;;;4.63;97.96;100405.81;5092979;28;20044;-69
2021/11/04 10:40:53;;;;;;;5.15;3.30;;;;;;;4.63;98.81;100410.97;5093067;28;20048;-69
2021/11/04 10:43:21;;;;;;;4.68;3.50;;;;;;;4.58;98.61;100405.97;5092841;28;20044;-69
2021/11/04 10:46:04;;;;;;;5.32;3.03;;;;;;;4.54;98.73;100407.78;5092870;28;20239;-69
2021/11/04 10:48:32;;;;;;;4.97;3.08;;;;;;;4.59;98.23;100403.31;5092848;28;20044;-69
2021/11/04 10:51:01;;;;;;;4.05;3.15;;;;;;;4.70;97.95;100408.13;5092440;28;20410;-69
2021/11/04 10:53:28;;;;;;;3.67;2.60;;;;;;;4.75;96.82;100402.75;5092617;28;20060;-69
2021/11/04 10:55:56;;;;;;;3.58;2.72;;;;;;;4.84;96.79;100407.59;5092367;28;20059;-69
2021/11/04 10:58:28;;;;;;;4.18;2.88;;;;;;;4.85;96.29;100411.00;5092510;28;20048;-69
2021/11/04 11:00:55;;;;;;;4.22;3.03;;;;;;;4.62;97.55;100410.09;5092642;28;20048;-69
2021/11/04 11:03:23;;;;;;;4.82;2.88;;;;;;;4.68;97.57;100402.16;5092791;28;20048;-69
2021/11/04 11:05:51;;;;;;;4.85;3.08;;;;;;;4.75;97.77;100407.91;5092566;28;20048;-69
2021/11/04 11:08:20;;;;;;;3.17;2.45;;;;;;;5.00;96.53;100406.13;5092198;28;20048;-69
2021/11/04 11:10:46;;;;;;;3.00;2.30;;;;;;;5.13;95.42;100406.50;5092482;28;20133;-69
2021/11/04 11:13:13;;;;;;;2.90;2.60;;;;;;;5.15;95.07;100404.72;5092151;28;20051;-69
2021/11/04 11:15:42;;;;;;;3.10;2.60;;;;;;;5.22;95.22;100408.75;5092467;28;20048;-69
2021/11/04 11:18:10;;;;;;;2.75;2.08;;;;;;;5.02;95.49;100406.91;5091999;28;20054;-69
2021/11/04 11:20:43;;;;;;;2.38;2.10;;;;;;;4.83;96.31;100405.94;5092166;28;20052;-69
2021/11/04 11:23:12;;;;;;;2.97;2.22;;;;;;;4.98;95.90;100402.78;5091928;28;20052;-69
2021/11/04 11:25:42;;;;;;;2.58;2.10;;;;;;;5.04;96.45;100398.28;5092515;28;20044;-69
2021/11/04 11:28:09;;;;;;;3.38;2.10;;;;;;;5.07;95.23;100400.75;5092201;28;20052;-69
2021/11/04 11:30:36;;;;;;;2.58;1.92;;;;;;;4.92;96.29;100408.16;5092062;28;20100;-69
2021/11/04 11:33:20;;;;;;;2.55;2.10;;;;;;;4.72;97.14;100408.03;5091430;28;20054;-69